createdAt,value
2018-08-22T00:02:20.644Z,95282.67
2018-08-22T00:04:46.975Z,95286.16
2018-08-22T00:07:13.307Z,95289.24
2018-08-22T00:09:39.656Z,95288.60
2018-08-22T00:12:06.017Z,95284.88
2018-08-22T00:14:32.363Z,95294.76
2018-08-22T00:16:58.717Z,95290.20
2018-08-22T00:19:25.056Z,95287.62
2018-08-22T00:21:51.370Z,95287.48
2018-08-22T00:24:17.932Z,95284.36
2018-08-22T00:26:44.306Z,95284.44
2018-08-22T00:29:10.771Z,95283.03
2018-08-22T00:31:37.048Z,95282.05
2018-08-22T00:34:03.455Z,95282.30
2018-08-22T00:36:29.845Z,95280.59
2018-08-22T00:38:56.226Z,95281.48
2018-08-22T00:41:22.652Z,95287.59
2018-08-22T00:43:49.034Z,95282.60
2018-08-22T00:46:15.448Z,95287.11
2018-08-22T00:48:41.848Z,95286.83
2018-08-22T00:51:08.182Z,95294.48
2018-08-22T00:53:34.567Z,95294.48
2018-08-22T00:56:00.968Z,95301.05
2018-08-22T00:58:27.302Z,95293.31
2018-08-22T01:00:53.648Z,95292.22
2018-08-22T01:03:20.206Z,95297.09
2018-08-22T01:05:46.567Z,95299.56
2018-08-22T01:08:12.897Z,95302.86
2018-08-22T01:10:39.222Z,95299.52
2018-08-22T01:13:05.575Z,95295.08
2018-08-22T01:15:31.938Z,95297.86
2018-08-22T01:17:58.298Z,95294.81
2018-08-22T01:20:24.613Z,95293.95
2018-08-22T01:22:50.986Z,95306.05
2018-08-22T01:25:17.309Z,95306.20
2018-08-22T01:27:43.675Z,95312.08
2018-08-22T01:30:10.088Z,95309.07
2018-08-22T01:32:36.475Z,95305.87
2018-08-22T01:35:02.844Z,95301.64
2018-08-22T01:37:29.205Z,95299.67
2018-08-22T01:39:55.565Z,95296.25
2018-08-22T01:42:21.934Z,95289.11
2018-08-22T01:44:48.329Z,95295.20
2018-08-22T01:47:14.761Z,95297.34
2018-08-22T01:49:41.266Z,95298.80
2018-08-22T01:52:07.677Z,95301.81
2018-08-22T01:54:34.006Z,95296.54
2018-08-22T01:57:00.370Z,95301.31
2018-08-22T01:59:26.697Z,95303.27
2018-08-22T02:01:53.072Z,95300.95
2018-08-22T02:04:19.405Z,95304.38
2018-08-22T02:06:45.790Z,95302.55
2018-08-22T02:09:12.111Z,95297.72
2018-08-22T02:11:38.417Z,95306.16
2018-08-22T02:14:04.747Z,95304.27
2018-08-22T02:16:31.106Z,95301.02
2018-08-22T02:18:57.482Z,95305.52
2018-08-22T02:21:23.811Z,95306.67
2018-08-22T02:23:50.185Z,95301.86
2018-08-22T02:26:16.502Z,95310.25
2018-08-22T02:28:42.832Z,95305.12
2018-08-22T02:31:09.203Z,95304.73
2018-08-22T02:33:35.591Z,95303.30
2018-08-22T02:36:01.979Z,95299.81
2018-08-22T02:38:28.326Z,95307.95
2018-08-22T02:40:54.688Z,95317.83
2018-08-22T02:43:21.023Z,95319.44
2018-08-22T02:45:47.358Z,95315.38
2018-08-22T02:48:13.682Z,95311.16
2018-08-22T02:50:40.006Z,95313.08
2018-08-22T02:53:06.342Z,95308.13
2018-08-22T02:55:32.680Z,95305.35
2018-08-22T02:57:59.006Z,95311.70
2018-08-22T03:00:25.441Z,95314.88
2018-08-22T03:02:51.798Z,95312.09
2018-08-22T03:05:18.129Z,95317.06
2018-08-22T03:07:44.470Z,95318.03
2018-08-22T03:10:10.871Z,95322.73
2018-08-22T03:12:37.282Z,95323.58
2018-08-22T03:15:03.644Z,95326.16
2018-08-22T03:17:29.969Z,95320.02
2018-08-22T03:19:56.290Z,95322.70
2018-08-22T03:22:22.723Z,95319.66
2018-08-22T03:24:49.115Z,95321.65
2018-08-22T03:27:15.480Z,95333.56
2018-08-22T03:29:41.811Z,95317.11
2018-08-22T03:32:08.127Z,95328.05
2018-08-22T03:34:34.725Z,95321.61
2018-08-22T03:37:01.209Z,95333.93
2018-08-22T03:39:27.636Z,95332.38
2018-08-22T03:41:54.064Z,95333.56
2018-08-22T03:44:20.451Z,95339.91
2018-08-22T03:46:46.845Z,95332.63
2018-08-22T03:49:13.183Z,95340.48
2018-08-22T03:51:39.610Z,95345.78
2018-08-22T03:54:06.120Z,95338.80
2018-08-22T03:56:32.486Z,95339.68
2018-08-22T03:58:58.957Z,95346.92
2018-08-22T04:01:25.547Z,95347.80
2018-08-22T04:03:51.980Z,95344.99
2018-08-22T04:06:18.388Z,95348.22
2018-08-22T04:08:44.728Z,95348.57
2018-08-22T04:11:11.055Z,95346.92
2018-08-22T04:13:37.439Z,95348.57
2018-08-22T04:16:03.805Z,95353.91
2018-08-22T04:18:30.251Z,95358.58
2018-08-22T04:20:56.590Z,95359.55
2018-08-22T04:23:22.972Z,95368.94
2018-08-22T04:25:49.371Z,95371.46
2018-08-22T04:28:15.726Z,95376.70
2018-08-22T04:30:42.045Z,95383.30
2018-08-22T04:33:08.377Z,95384.31
2018-08-22T04:35:34.749Z,95380.67
2018-08-22T04:38:01.101Z,95382.56
2018-08-22T04:40:27.555Z,95384.31
2018-08-22T04:42:53.882Z,95388.42
2018-08-22T04:45:20.244Z,95387.13
2018-08-22T04:47:46.587Z,95384.25
2018-08-22T04:50:12.907Z,95389.69
2018-08-22T04:52:39.276Z,95394.13
2018-08-22T04:55:05.610Z,95387.33
2018-08-22T04:57:31.973Z,95394.38
2018-08-22T04:59:58.402Z,95393.23
2018-08-22T05:02:24.767Z,95395.93
2018-08-22T05:04:51.165Z,95397.39
2018-08-22T05:07:17.496Z,95390.44
2018-08-22T05:09:43.815Z,95396.66
2018-08-22T05:12:10.195Z,95390.63
2018-08-22T05:14:36.527Z,95386.56
2018-08-22T05:17:02.886Z,95378.16
2018-08-22T05:19:29.222Z,95385.02
2018-08-22T05:21:55.655Z,95382.06
2018-08-22T05:24:22.014Z,95385.86
2018-08-22T05:26:48.377Z,95385.04
2018-08-22T05:29:14.733Z,95389.32
2018-08-22T05:31:41.109Z,95388.63
2018-08-22T05:34:07.466Z,95388.22
2018-08-22T05:36:33.809Z,95388.58
2018-08-22T05:39:00.203Z,95390.70
2018-08-22T05:41:26.552Z,95393.66
2018-08-22T05:43:52.974Z,95392.84
2018-08-22T05:46:19.297Z,95398.05
2018-08-22T05:48:45.718Z,95397.04
2018-08-22T05:51:12.091Z,95397.41
2018-08-22T05:53:38.451Z,95394.31
2018-08-22T05:56:04.829Z,95396.17
2018-08-22T05:58:31.254Z,95398.14
2018-08-22T06:00:57.652Z,95394.14
2018-08-22T06:03:24.059Z,95399.62
2018-08-22T06:05:50.414Z,95394.41
2018-08-22T06:08:16.784Z,95394.41
2018-08-22T06:10:43.223Z,95396.86
2018-08-22T06:13:09.578Z,95397.95
2018-08-22T06:15:35.965Z,95390.78
2018-08-22T06:18:02.321Z,95402.70
2018-08-22T06:20:28.722Z,95405.08
2018-08-22T06:22:55.078Z,95402.55
2018-08-22T06:25:21.514Z,95402.86
2018-08-22T06:27:47.943Z,95406.58
2018-08-22T06:30:14.355Z,95407.81
2018-08-22T06:32:40.814Z,95403.53
2018-08-22T06:35:07.238Z,95411.55
2018-08-22T06:37:33.784Z,95412.62
2018-08-22T06:40:00.170Z,95419.20
2018-08-22T06:42:26.542Z,95414.13
2018-08-22T06:44:52.975Z,95414.72
2018-08-22T06:47:19.508Z,95417.39
2018-08-22T06:49:45.908Z,95419.73
2018-08-22T06:52:12.243Z,95410.20
2018-08-22T06:54:38.607Z,95418.16
2018-08-22T06:57:05.002Z,95416.38
2018-08-22T06:59:31.372Z,95420.54
2018-08-22T07:01:57.800Z,95419.71
2018-08-22T07:04:24.163Z,95428.35
2018-08-22T07:06:50.622Z,95422.53
2018-08-22T07:09:17.173Z,95424.36
2018-08-22T07:11:44.007Z,95416.91
2018-08-22T07:14:10.426Z,95416.72
2018-08-22T07:16:36.812Z,95413.06
2018-08-22T07:19:03.140Z,95411.88
2018-08-22T07:21:29.490Z,95408.95
2018-08-22T07:23:55.905Z,95411.70
2018-08-22T07:26:22.338Z,95415.08
2018-08-22T07:28:48.671Z,95410.62
2018-08-22T07:31:15.060Z,95408.47
2018-08-22T07:33:41.421Z,95414.61
2018-08-22T07:36:07.827Z,95414.22
2018-08-22T07:38:34.178Z,95408.80
2018-08-22T07:41:00.586Z,95407.61
2018-08-22T07:43:27.024Z,95406.36
2018-08-22T07:45:53.415Z,95408.36
2018-08-22T07:48:19.790Z,95405.23
2018-08-22T07:50:46.162Z,95404.81
2018-08-22T07:53:12.574Z,95396.19
2018-08-22T07:55:38.932Z,95405.13
2018-08-22T07:58:05.331Z,95403.53
2018-08-22T08:00:31.702Z,95399.02
2018-08-22T08:02:58.081Z,95393.19
2018-08-22T08:05:24.461Z,95400.37
2018-08-22T08:07:50.822Z,95397.78
2018-08-22T08:10:17.336Z,95401.08
2018-08-22T08:12:43.701Z,95394.19
2018-08-22T08:15:10.129Z,95393.19
2018-08-22T08:17:36.511Z,95394.67
2018-08-22T08:20:02.960Z,95389.89
2018-08-22T08:22:29.385Z,95392.06
2018-08-22T08:24:55.722Z,95395.55
2018-08-22T08:27:22.173Z,95394.29
2018-08-22T08:29:48.581Z,95389.70
2018-08-22T08:32:14.972Z,95385.05
2018-08-22T08:34:41.377Z,95389.30
2018-08-22T08:37:07.879Z,95388.92
2018-08-22T08:39:34.258Z,95389.17
2018-08-22T08:42:00.746Z,95390.05
2018-08-22T08:44:27.121Z,95386.14
2018-08-22T08:46:53.579Z,95387.95
2018-08-22T08:49:20.012Z,95383.15
2018-08-22T08:51:46.476Z,95384.39
2018-08-22T08:54:12.852Z,95377.84
2018-08-22T08:56:39.342Z,95378.09
2018-08-22T08:59:05.800Z,95371.73
2018-08-22T09:01:32.204Z,95367.00
2018-08-22T09:03:58.681Z,95372.17
2018-08-22T09:06:25.023Z,95368.91
2018-08-22T09:08:51.508Z,95369.30
2018-08-22T09:11:17.997Z,95362.88
2018-08-22T09:13:44.587Z,95367.83
2018-08-22T09:16:11.003Z,95368.75
2018-08-22T09:18:37.383Z,95369.83
2018-08-22T09:21:03.807Z,95366.48
2018-08-22T09:23:30.194Z,95362.02
2018-08-22T09:25:57.280Z,95355.15
2018-08-22T09:28:23.660Z,95357.48
2018-08-22T09:30:50.042Z,95354.37
2018-08-22T09:33:16.555Z,95344.26
2018-08-22T09:35:42.999Z,95344.35
2018-08-22T09:38:09.414Z,95341.64
2018-08-22T09:40:35.810Z,95342.08
2018-08-22T09:43:02.288Z,95331.45
2018-08-22T09:45:28.823Z,95331.51
2018-08-22T09:47:55.170Z,95332.66
2018-08-22T09:50:21.520Z,95316.83
2018-08-22T09:52:47.909Z,95324.52
2018-08-22T09:55:14.266Z,95334.69
2018-08-22T09:57:40.656Z,95328.17
2018-08-22T10:00:07.127Z,95318.75
2018-08-22T10:02:33.496Z,95320.76
2018-08-22T10:04:59.879Z,95329.45
2018-08-22T10:07:26.357Z,95322.47
2018-08-22T10:09:52.680Z,95310.59
2018-08-22T10:12:19.207Z,95320.09
2018-08-22T10:14:45.589Z,95320.34
2018-08-22T10:17:11.951Z,95317.99
2018-08-22T10:19:38.474Z,95312.37
2018-08-22T10:22:05.376Z,95315.47
2018-08-22T10:24:31.779Z,95304.16
2018-08-22T10:26:58.244Z,95299.61
2018-08-22T10:29:24.666Z,95295.06
2018-08-22T10:31:51.053Z,95308.38
2018-08-22T10:34:17.489Z,95300.02
2018-08-22T10:36:43.990Z,95301.38
2018-08-22T10:39:10.355Z,95299.99
2018-08-22T10:41:36.839Z,95301.77
2018-08-22T10:44:03.191Z,95300.27
2018-08-22T10:46:29.585Z,95301.20
2018-08-22T10:48:55.987Z,95296.44
2018-08-22T10:51:22.417Z,95289.80
2018-08-22T10:53:48.826Z,95283.75
2018-08-22T10:56:15.231Z,95284.47
2018-08-22T10:58:41.717Z,95281.83
2018-08-22T11:01:08.080Z,95278.31
2018-08-22T11:03:34.478Z,95281.13
2018-08-22T11:06:00.877Z,95271.23
2018-08-22T11:08:27.719Z,95271.25
2018-08-22T11:10:54.112Z,95278.92
2018-08-22T11:13:20.521Z,95279.23
2018-08-22T11:15:46.942Z,95275.95
2018-08-22T11:18:13.316Z,95266.97
2018-08-22T11:20:39.726Z,95268.04
2018-08-22T11:23:06.183Z,95269.41
2018-08-22T11:25:32.637Z,95264.41
2018-08-22T11:27:59.019Z,95269.91
2018-08-22T11:30:25.415Z,95259.27
2018-08-22T11:32:51.828Z,95266.91
2018-08-22T11:35:18.337Z,95268.09
2018-08-22T11:37:44.849Z,95267.27
2018-08-22T11:40:11.240Z,95257.00
2018-08-22T11:42:37.641Z,95257.05
2018-08-22T11:45:04.000Z,95254.70
2018-08-22T11:47:30.554Z,95252.87
2018-08-22T11:49:56.916Z,95252.41
2018-08-22T11:52:23.308Z,95251.08
2018-08-22T11:54:49.654Z,95247.48
2018-08-22T11:57:16.092Z,95243.00
2018-08-22T11:59:42.533Z,95239.90
2018-08-22T12:02:08.948Z,95242.78
2018-08-22T12:04:35.375Z,95242.39
2018-08-22T12:07:03.619Z,95237.39
2018-08-22T12:09:30.101Z,95233.73
2018-08-22T12:11:56.479Z,95232.78
2018-08-22T12:14:22.834Z,95230.53
2018-08-22T12:16:49.277Z,95220.36
2018-08-22T12:19:15.623Z,95231.69
2018-08-22T12:21:41.973Z,95224.05
2018-08-22T12:24:08.329Z,95220.16
2018-08-22T12:26:34.711Z,95223.78
2018-08-22T12:29:01.184Z,95223.94
2018-08-22T12:31:27.595Z,95225.46
2018-08-22T12:33:53.927Z,95221.57
2018-08-22T12:36:20.289Z,95216.71
2018-08-22T12:38:49.604Z,95214.88
2018-08-22T12:41:16.196Z,95211.83
2018-08-22T12:43:42.626Z,95212.86
2018-08-22T12:46:08.957Z,95216.22
2018-08-22T12:48:35.391Z,95212.20
2018-08-22T12:51:01.767Z,95209.86
2018-08-22T12:53:28.120Z,95208.88
2018-08-22T12:55:54.616Z,95208.91
2018-08-22T12:58:20.987Z,95206.13
2018-08-22T13:00:47.454Z,95207.61
2018-08-22T13:03:13.984Z,95212.49
2018-08-22T13:05:40.558Z,95199.72
2018-08-22T13:08:07.012Z,95194.38
2018-08-22T13:10:33.421Z,95197.03
2018-08-22T13:12:59.782Z,95197.17
2018-08-22T13:15:26.296Z,95196.25
2018-08-22T13:17:52.656Z,95199.30
2018-08-22T13:20:19.142Z,95199.59
2018-08-22T13:22:45.504Z,95196.38
2018-08-22T13:25:11.877Z,95195.50
2018-08-22T13:27:38.244Z,95188.12
2018-08-22T13:30:04.731Z,95190.91
2018-08-22T13:32:31.199Z,95190.06
2018-08-22T13:34:57.606Z,95190.97
2018-08-22T13:37:24.148Z,95192.91
2018-08-22T13:39:50.592Z,95188.70
2018-08-22T13:42:17.107Z,95195.41
2018-08-22T13:44:43.443Z,95195.85
2018-08-22T13:47:09.816Z,95189.97
2018-08-22T13:49:36.202Z,95192.67
2018-08-22T13:52:02.639Z,95194.55
2018-08-22T13:54:29.178Z,95195.29
2018-08-22T13:56:55.535Z,95194.47
2018-08-22T13:59:23.004Z,95184.83
2018-08-22T14:01:49.462Z,95188.66
2018-08-22T14:04:17.467Z,95181.80
2018-08-22T14:06:43.816Z,95180.65
2018-08-22T14:09:10.243Z,95176.44
2018-08-22T14:11:36.571Z,95171.50
2018-08-22T14:14:02.996Z,95173.36
2018-08-22T14:16:30.000Z,95173.43
2018-08-22T14:18:56.387Z,95174.16
2018-08-22T14:21:22.751Z,95177.66
2018-08-22T14:23:49.118Z,95164.25
2018-08-22T14:26:15.493Z,95163.64
2018-08-22T14:28:41.852Z,95165.80
2018-08-22T14:31:08.227Z,95160.53
2018-08-22T14:33:34.668Z,95157.91
2018-08-22T14:36:01.022Z,95160.70
2018-08-22T14:38:27.439Z,95158.58
2018-08-22T14:40:53.792Z,95167.59
2018-08-22T14:43:20.174Z,95168.67
2018-08-22T14:45:46.531Z,95168.00
2018-08-22T14:48:12.901Z,95167.64
2018-08-22T14:50:39.304Z,95164.78
2018-08-22T14:53:05.651Z,95165.30
2018-08-22T14:55:32.051Z,95167.74
2018-08-22T14:57:58.531Z,95167.03
2018-08-22T15:00:24.907Z,95161.42
2018-08-22T15:02:51.518Z,95166.03
2018-08-22T15:05:17.622Z,95164.21
2018-08-22T15:07:43.959Z,95167.01
2018-08-22T15:10:10.382Z,95162.22
2018-08-22T15:12:36.808Z,95164.13
2018-08-22T15:15:03.128Z,95158.12
2018-08-22T15:17:29.517Z,95162.42
2018-08-22T15:19:55.927Z,95159.09
2018-08-22T15:22:22.282Z,95154.72
2018-08-22T15:24:48.618Z,95152.13
2018-08-22T15:27:14.979Z,95149.55
2018-08-22T15:29:41.521Z,95155.09
2018-08-22T15:32:07.977Z,95152.07
2018-08-22T15:34:34.307Z,95156.28
2018-08-22T15:37:01.460Z,95159.45
2018-08-22T15:39:27.822Z,95160.30
2018-08-22T15:41:54.185Z,95156.02
2018-08-22T15:44:20.631Z,95164.00
2018-08-22T15:46:47.024Z,95158.75
2018-08-22T15:49:13.419Z,95159.69
2018-08-22T15:51:39.840Z,95157.19
2018-08-22T15:54:06.280Z,95162.16
2018-08-22T15:56:32.646Z,95157.52
2018-08-22T15:58:59.100Z,95165.59
2018-08-22T16:01:25.577Z,95169.13
2018-08-22T16:03:52.011Z,95166.80
2018-08-22T16:06:18.549Z,95173.98
2018-08-22T16:08:44.928Z,95169.42
2018-08-22T16:11:11.311Z,95172.73
2018-08-22T16:13:37.677Z,95168.39
2018-08-22T16:16:04.127Z,95165.80
2018-08-22T16:18:30.610Z,95161.25
2018-08-22T16:20:57.053Z,95167.13
2018-08-22T16:23:23.416Z,95167.64
2018-08-22T16:25:49.776Z,95166.61
2018-08-22T16:28:16.280Z,95173.00
2018-08-22T16:30:42.717Z,95167.69
2018-08-22T16:33:09.024Z,95172.55
2018-08-22T16:35:35.437Z,95170.33
2018-08-22T16:38:01.815Z,95179.32
2018-08-22T16:40:28.165Z,95177.05
2018-08-22T16:42:54.547Z,95178.57
2018-08-22T16:45:21.085Z,95180.02
2018-08-22T16:47:47.470Z,95183.33
2018-08-22T16:50:13.944Z,95183.33
2018-08-22T16:52:40.304Z,95175.66
2018-08-22T16:55:06.670Z,95182.59
2018-08-22T16:57:33.028Z,95185.13
2018-08-22T16:59:59.443Z,95192.17
2018-08-22T17:02:25.971Z,95189.64
2018-08-22T17:04:52.430Z,95197.24
2018-08-22T17:07:18.829Z,95199.92
2018-08-22T17:09:45.161Z,95202.13
2018-08-22T17:12:11.511Z,95202.75
2018-08-22T17:14:37.838Z,95207.87
2018-08-22T17:17:04.200Z,95205.28
2018-08-22T17:19:30.687Z,95208.38
2018-08-22T17:21:57.086Z,95209.94
2018-08-22T17:24:23.429Z,95208.53
2018-08-22T17:26:49.779Z,95216.44
2018-08-22T17:29:16.135Z,95213.70
2018-08-22T17:31:42.463Z,95220.27
2018-08-22T17:34:08.843Z,95218.14
2018-08-22T17:36:35.269Z,95218.05
2018-08-22T17:39:01.651Z,95226.23
2018-08-22T17:41:27.974Z,95229.37
2018-08-22T17:43:54.413Z,95228.50
2018-08-22T17:46:20.785Z,95231.44
2018-08-22T17:48:47.113Z,95235.79
2018-08-22T17:51:13.487Z,95242.09
2018-08-22T17:53:39.879Z,95251.31
2018-08-22T17:56:06.239Z,95250.79
2018-08-22T17:58:32.632Z,95251.87
2018-08-22T18:00:58.967Z,95255.61
2018-08-22T18:03:25.322Z,95261.45
2018-08-22T18:05:51.769Z,95262.61
2018-08-22T18:08:18.120Z,95264.31
2018-08-22T18:10:44.538Z,95263.48
2018-08-22T18:13:10.882Z,95271.92
2018-08-22T18:15:37.269Z,95273.01
2018-08-22T18:18:03.626Z,95273.95
2018-08-22T18:20:30.020Z,95279.05
2018-08-22T18:22:56.373Z,95280.82
2018-08-22T18:25:22.713Z,95275.55
2018-08-22T18:27:49.065Z,95277.83
2018-08-22T18:30:15.443Z,95280.41
2018-08-22T18:32:41.877Z,95280.73
2018-08-22T18:35:08.293Z,95281.86
2018-08-22T18:37:34.744Z,95289.88
2018-08-22T18:40:01.103Z,95289.67
2018-08-22T18:42:27.491Z,95297.44
2018-08-22T18:44:53.854Z,95294.64
2018-08-22T18:47:20.203Z,95290.75
2018-08-22T18:49:46.551Z,95289.94
2018-08-22T18:52:12.882Z,95287.05
2018-08-22T18:54:39.264Z,95282.37
2018-08-22T18:57:05.597Z,95288.58
2018-08-22T18:59:31.976Z,95294.34
2018-08-22T19:01:58.364Z,95300.80
2018-08-22T19:04:24.720Z,95301.38
2018-08-22T19:06:51.068Z,95298.67
2018-08-22T19:09:17.419Z,95297.02
2018-08-22T19:11:43.846Z,95301.05
2018-08-22T19:14:10.227Z,95302.05
2018-08-22T19:16:36.576Z,95299.30
2018-08-22T19:19:02.928Z,95304.69
2018-08-22T19:21:29.276Z,95298.98
2018-08-22T19:23:55.647Z,95305.20
2018-08-22T19:26:22.034Z,95302.55
2018-08-22T19:28:48.421Z,95298.09
2018-08-22T19:31:14.855Z,95298.31
2018-08-22T19:33:41.204Z,95299.34
2018-08-22T19:36:07.533Z,95299.40
2018-08-22T19:38:33.938Z,95296.66
2018-08-22T19:41:00.293Z,95303.28
2018-08-22T19:43:26.647Z,95304.94
2018-08-22T19:45:53.006Z,95304.31
2018-08-22T19:48:19.336Z,95302.19
2018-08-22T19:50:45.700Z,95303.58
2018-08-22T19:53:12.131Z,95293.65
2018-08-22T19:55:38.487Z,95296.76
2018-08-22T19:58:04.820Z,95295.09
2018-08-22T20:00:31.227Z,95295.86
2018-08-22T20:02:57.623Z,95292.75
2018-08-22T20:05:24.012Z,95289.19
2018-08-22T20:07:50.365Z,95295.70
2018-08-22T20:10:16.716Z,95286.80
2018-08-22T20:12:43.084Z,95288.14
2018-08-22T20:15:09.434Z,95292.47
2018-08-22T20:17:35.849Z,95293.62
2018-08-22T20:20:02.218Z,95290.05
2018-08-22T20:22:28.573Z,95290.35
2018-08-22T20:24:54.937Z,95288.02
2018-08-22T20:27:21.374Z,95288.98
2018-08-22T20:29:47.807Z,95282.94
2018-08-22T20:32:14.415Z,95285.52
2018-08-22T20:34:40.781Z,95287.33
2018-08-22T20:37:07.229Z,95281.28
2018-08-22T20:39:33.604Z,95282.41
2018-08-22T20:41:59.954Z,95284.80
2018-08-22T20:44:26.428Z,95282.63
2018-08-22T20:46:52.818Z,95283.13
2018-08-22T20:49:19.177Z,95286.42
2018-08-22T20:51:45.528Z,95286.76
2018-08-22T20:54:11.856Z,95290.16
2018-08-22T20:56:38.186Z,95296.05
2018-08-22T20:59:04.516Z,95295.25
2018-08-22T21:01:30.877Z,95297.84
2018-08-22T21:03:57.262Z,95303.00
2018-08-22T21:06:23.615Z,95312.41
2018-08-22T21:08:49.960Z,95308.64
2018-08-22T21:11:16.338Z,95307.76
2018-08-22T21:13:42.665Z,95310.25
2018-08-22T21:16:09.034Z,95307.36
2018-08-22T21:18:35.476Z,95308.24
2018-08-22T21:21:01.824Z,95310.88
2018-08-22T21:23:28.156Z,95321.63
2018-08-22T21:25:54.512Z,95311.29
2018-08-22T21:28:20.988Z,95311.23
2018-08-22T21:30:47.367Z,95309.83
2018-08-22T21:33:13.757Z,95317.27
2018-08-22T21:35:40.131Z,95318.23
2018-08-22T21:38:06.540Z,95323.40
2018-08-22T21:40:32.882Z,95320.05
2018-08-22T21:42:59.252Z,95319.58
2018-08-22T21:45:25.593Z,95315.78
2018-08-22T21:47:51.955Z,95323.11
2018-08-22T21:50:18.349Z,95322.75
2018-08-22T21:52:44.706Z,95324.27
2018-08-22T21:55:11.068Z,95327.41
2018-08-22T21:57:37.543Z,95335.73
2018-08-22T22:00:03.923Z,95331.38
2018-08-22T22:02:30.280Z,95328.05
2018-08-22T22:04:56.753Z,95334.67
2018-08-22T22:07:23.148Z,95336.09
2018-08-22T22:09:49.549Z,95339.91
2018-08-22T22:12:15.987Z,95336.97
2018-08-22T22:14:42.345Z,95338.09
2018-08-22T22:17:08.925Z,95331.98
2018-08-22T22:19:35.330Z,95330.23
2018-08-22T22:22:01.774Z,95347.06
2018-08-22T22:24:28.237Z,95339.14
2018-08-22T22:26:54.631Z,95342.14
2018-08-22T22:29:21.077Z,95332.48
2018-08-22T22:31:47.607Z,95348.02
2018-08-22T22:34:13.981Z,95336.16
2018-08-22T22:36:40.506Z,95337.75
2018-08-22T22:39:07.040Z,95338.52
2018-08-22T22:41:33.412Z,95337.34
2018-08-22T22:44:00.005Z,95336.06
2018-08-22T22:46:26.455Z,95331.47
2018-08-22T22:48:53.042Z,95336.41
2018-08-22T22:51:19.378Z,95333.08
2018-08-22T22:53:45.779Z,95340.69
2018-08-22T22:56:12.177Z,95333.59
2018-08-22T22:58:38.604Z,95332.08
2018-08-22T23:01:05.036Z,95337.11
2018-08-22T23:03:31.417Z,95334.11
2018-08-22T23:05:57.881Z,95333.94
2018-08-22T23:08:24.342Z,95336.34
2018-08-22T23:10:50.797Z,95335.00
2018-08-22T23:13:17.265Z,95336.30
2018-08-22T23:15:43.654Z,95331.55
2018-08-22T23:18:10.040Z,95328.92
2018-08-22T23:20:36.512Z,95326.67
2018-08-22T23:23:02.892Z,95332.80
2018-08-22T23:25:29.304Z,95330.50
2018-08-22T23:27:55.812Z,95331.61
2018-08-22T23:30:22.234Z,95328.51
2018-08-22T23:32:48.704Z,95330.13
2018-08-22T23:35:15.124Z,95329.54
2018-08-22T23:37:41.496Z,95336.08
2018-08-22T23:40:08.069Z,95330.09
2018-08-22T23:42:34.431Z,95331.94
2018-08-22T23:45:00.862Z,95333.13
2018-08-22T23:47:27.387Z,95330.89
2018-08-22T23:49:53.843Z,95327.98
2018-08-22T23:52:20.263Z,95332.67
2018-08-22T23:54:46.622Z,95329.97
2018-08-22T23:57:13.062Z,95329.81
2018-08-22T23:59:39.496Z,95325.69
